Time;durP1;ratioP1;P1;durP2;ratioP2;P2;SDS_P1;SDS_P2;PMS_P1;PMS_P2;Temp;Humidity;BMP_temperature;BMP_pressure;BME280_temperature;BME280_humidity;BME280_pressure;Samples;Min_cycle;Max_cycle;Signal;HPM_P1;HPM_P2
2024/01/08 00:02:20;;;;;;;13.65;8.88;;;-6.10;1.00;;;;;;5105476;28;20421;-75
2024/01/08 00:04:46;;;;;;;15.18;9.82;;;-6.20;1.00;;;;;;5110977;28;20236;-74
2024/01/08 00:07:13;;;;;;;12.98;8.75;;;-6.20;1.00;;;;;;5102124;27;20728;-75
2024/01/08 00:09:40;;;;;;;13.55;8.70;;;-6.20;1.00;;;;;;5106762;28;20691;-73
2024/01/08 00:12:09;;;;;;;8.98;7.85;;;-6.20;1.00;;;;;;5109621;28;20235;-75
2024/01/08 00:14:36;;;;;;;14.32;8.75;;;-6.20;1.00;;;;;;5108106;27;20239;-75
2024/01/08 00:17:03;;;;;;;11.40;8.20;;;-6.20;1.00;;;;;;5106470;28;20245;-76
2024/01/08 00:19:32;;;;;;;12.35;7.75;;;-6.20;1.00;;;;;;5108931;28;20305;-74
2024/01/08 00:21:59;;;;;;;9.82;7.60;;;-6.30;1.00;;;;;;5108236;28;21788;-74
2024/01/08 00:24:26;;;;;;;11.43;7.80;;;-6.20;1.00;;;;;;5106034;28;20931;-75
2024/01/08 00:26:53;;;;;;;14.68;9.32;;;-6.20;1.00;;;;;;5109466;28;20239;-75
2024/01/08 00:29:22;;;;;;;19.25;9.60;;;-6.20;1.00;;;;;;5110103;27;20301;-74
2024/01/08 00:31:48;;;;;;;10.25;8.10;;;-6.20;1.00;;;;;;5109089;28;20731;-76
2024/01/08 00:34:16;;;;;;;11.13;7.88;;;-6.10;1.00;;;;;;5109281;27;20232;-76
2024/01/08 00:36:43;;;;;;;11.63;8.77;;;-6.20;1.00;;;;;;5109571;28;21108;-74
2024/01/08 00:39:11;;;;;;;9.70;8.70;;;-6.20;1.00;;;;;;5107727;28;20891;-71
2024/01/08 00:41:38;;;;;;;11.50;8.82;;;-6.20;1.00;;;;;;5110662;28;20244;-71
2024/01/08 00:44:05;;;;;;;8.57;7.07;;;-6.20;1.00;;;;;;5110974;27;20731;-71
2024/01/08 00:46:34;;;;;;;8.75;6.63;;;-6.20;1.00;;;;;;5105262;28;20332;-73
2024/01/08 00:49:01;;;;;;;9.30;7.80;;;-6.20;1.00;;;;;;5107808;28;20322;-73
2024/01/08 00:51:28;;;;;;;10.95;7.75;;;-6.20;1.00;;;;;;5103685;27;20242;-72
2024/01/08 00:53:56;;;;;;;10.48;8.25;;;-6.20;1.00;;;;;;5108717;28;20295;-72
2024/01/08 00:56:23;;;;;;;11.18;7.97;;;-6.20;1.00;;;;;;5111072;28;20227;-72
2024/01/08 00:58:51;;;;;;;11.57;7.80;;;-6.20;1.00;;;;;;5107216;28;20326;-71
2024/01/08 01:01:19;;;;;;;9.40;7.55;;;-6.20;1.00;;;;;;5106652;28;20741;-74
2024/01/08 01:03:47;;;;;;;10.20;8.40;;;-6.20;1.00;;;;;;5109935;27;20239;-73
2024/01/08 01:06:19;;;;;;;13.10;8.38;;;-6.20;1.00;;;;;;5109225;28;20235;-74
2024/01/08 01:08:46;;;;;;;9.63;7.75;;;-6.30;1.00;;;;;;5105370;28;21087;-71
2024/01/08 01:11:13;;;;;;;9.95;7.82;;;-6.20;1.00;;;;;;5103819;27;20243;-72
2024/01/08 01:13:40;;;;;;;9.10;7.25;;;-6.30;1.00;;;;;;5107168;28;20274;-72
2024/01/08 01:16:08;;;;;;;16.70;8.60;;;-6.30;1.00;;;;;;5105139;27;21189;-74
2024/01/08 01:18:35;;;;;;;10.60;8.23;;;-6.30;1.00;;;;;;5103113;28;20767;-70
2024/01/08 01:21:04;;;;;;;11.73;8.68;;;-6.30;1.00;;;;;;5103950;28;20312;-73
2024/01/08 01:23:31;;;;;;;10.75;7.65;;;-6.30;1.00;;;;;;5105600;28;20285;-72
2024/01/08 01:25:58;;;;;;;10.52;8.57;;;-6.20;1.00;;;;;;5105529;27;20245;-71
2024/01/08 01:28:25;;;;;;;11.63;8.02;;;-6.30;1.00;;;;;;5107138;28;20290;-70
2024/01/08 01:30:52;;;;;;;12.80;7.63;;;-6.30;1.00;;;;;;5107015;27;20262;-72
2024/01/08 01:33:19;;;;;;;8.98;7.60;;;-6.40;1.00;;;;;;5103474;27;20231;-72
2024/01/08 01:35:48;;;;;;;13.32;8.65;;;-6.30;1.00;;;;;;5103828;27;20955;-71
2024/01/08 01:38:17;;;;;;;14.80;8.95;;;-6.40;1.00;;;;;;5099420;27;20238;-75
2024/01/08 01:40:46;;;;;;;12.40;7.97;;;-6.30;1.00;;;;;;5108750;28;20231;-72
2024/01/08 01:43:22;;;;;;;11.13;7.50;;;-6.40;1.00;;;;;;5107384;27;20239;-71
2024/01/08 01:45:50;;;;;;;9.60;7.90;;;-6.40;1.00;;;;;;5104909;27;20273;-72
2024/01/08 01:48:17;;;;;;;11.15;8.02;;;-6.40;1.00;;;;;;5108705;27;20236;-72
2024/01/08 01:50:45;;;;;;;11.38;8.60;;;-6.30;1.00;;;;;;5109675;28;20399;-78
2024/01/08 01:53:12;;;;;;;10.13;7.90;;;-6.30;1.00;;;;;;5105546;28;20308;-77
2024/01/08 01:55:41;;;;;;;10.00;7.72;;;-6.40;1.00;;;;;;5108446;27;20291;-77
2024/01/08 01:58:08;;;;;;;11.13;8.52;;;-6.40;1.00;;;;;;5110166;28;20289;-79
2024/01/08 02:00:36;;;;;;;12.32;8.75;;;-6.40;1.00;;;;;;5110213;27;20264;-76
2024/01/08 02:03:04;;;;;;;11.60;7.78;;;-6.50;1.00;;;;;;5078777;28;20224;-77
2024/01/08 02:05:31;;;;;;;10.60;7.90;;;-6.50;1.00;;;;;;5112623;28;20259;-77
2024/01/08 02:07:59;;;;;;;12.02;7.97;;;-6.50;1.00;;;;;;5113707;27;20231;-77
2024/01/08 02:10:27;;;;;;;9.80;7.50;;;-6.60;1.00;;;;;;5112471;27;20748;-76
2024/01/08 02:12:55;;;;;;;12.50;8.60;;;-6.50;1.00;;;;;;5113214;28;20239;-76
2024/01/08 02:15:22;;;;;;;9.63;7.45;;;-6.50;1.00;;;;;;5110481;28;20325;-78
2024/01/08 02:17:49;;;;;;;10.55;7.20;;;-6.50;1.00;;;;;;5109106;28;20246;-78
2024/01/08 02:20:16;;;;;;;9.38;8.10;;;-6.50;1.00;;;;;;5107896;28;20231;-76
2024/01/08 02:22:44;;;;;;;9.70;7.45;;;-6.60;1.00;;;;;;5109205;28;20243;-77
2024/01/08 02:25:12;;;;;;;12.38;8.02;;;-6.60;1.00;;;;;;5111593;28;21066;-77
2024/01/08 02:27:39;;;;;;;15.75;7.72;;;-6.60;1.00;;;;;;5111648;27;20262;-77
2024/01/08 02:30:07;;;;;;;10.40;7.75;;;-6.60;1.00;;;;;;5108497;28;20239;-76
2024/01/08 02:32:34;;;;;;;9.98;7.82;;;-6.70;1.00;;;;;;5109000;28;20231;-77
2024/01/08 02:35:01;;;;;;;9.98;7.55;;;-6.70;1.00;;;;;;5111737;28;20267;-77
2024/01/08 02:37:28;;;;;;;10.13;7.68;;;-6.60;1.00;;;;;;5111362;28;20761;-78
2024/01/08 02:39:56;;;;;;;12.23;9.15;;;-6.70;1.00;;;;;;5110053;28;20301;-76
2024/01/08 02:42:23;;;;;;;9.68;7.82;;;-6.70;1.00;;;;;;5109490;27;20262;-76
2024/01/08 02:44:50;;;;;;;11.20;8.50;;;-6.70;1.00;;;;;;5113083;28;20281;-78
2024/01/08 02:47:17;;;;;;;11.38;7.50;;;-6.70;1.00;;;;;;5111844;28;20239;-78
2024/01/08 02:49:45;;;;;;;12.77;8.38;;;-6.70;1.00;;;;;;5102909;28;20813;-79
2024/01/08 02:52:14;;;;;;;14.07;8.50;;;-6.70;1.00;;;;;;5111134;28;20250;-77
2024/01/08 02:54:41;;;;;;;12.68;9.98;;;-6.80;1.00;;;;;;5105189;28;20727;-78
2024/01/08 02:57:10;;;;;;;9.02;6.88;;;-6.70;1.00;;;;;;5106103;28;20312;-78
2024/01/08 02:59:37;;;;;;;7.88;7.05;;;-6.70;1.00;;;;;;5106464;28;20262;-77
2024/01/08 03:02:04;;;;;;;9.20;6.90;;;-6.70;1.00;;;;;;5108633;28;20239;-76
2024/01/08 03:04:31;;;;;;;12.00;7.72;;;-6.80;1.00;;;;;;5107664;28;20255;-78
2024/01/08 03:07:01;;;;;;;13.45;7.60;;;-6.80;1.00;;;;;;5106947;28;21085;-81
2024/01/08 03:09:28;;;;;;;10.13;8.45;;;-6.70;1.00;;;;;;5106280;28;20243;-81
2024/01/08 03:11:55;;;;;;;12.45;7.68;;;-6.80;1.00;;;;;;5106498;27;20232;-77
2024/01/08 03:14:24;;;;;;;8.90;7.35;;;-6.80;1.00;;;;;;5099387;28;21202;-81
2024/01/08 03:16:51;;;;;;;10.50;7.55;;;-6.80;1.00;;;;;;5110119;27;20239;-78
2024/01/08 03:19:18;;;;;;;12.68;8.27;;;-6.90;1.00;;;;;;5091564;28;20327;-78
2024/01/08 03:21:45;;;;;;;11.85;7.43;;;-6.90;1.00;;;;;;5104951;28;20342;-77
2024/01/08 03:24:12;;;;;;;13.63;8.48;;;-6.80;1.00;;;;;;5111152;28;20255;-77
2024/01/08 03:26:39;;;;;;;11.35;7.78;;;-6.90;1.00;;;;;;5109194;28;20323;-76
2024/01/08 03:29:06;;;;;;;13.45;7.78;;;-6.80;1.00;;;;;;5110771;28;20255;-79
2024/01/08 03:31:40;;;;;;;10.88;7.00;;;-6.80;1.00;;;;;;5109161;27;20235;-77
2024/01/08 03:34:07;;;;;;;9.57;7.38;;;-6.80;1.00;;;;;;5109818;28;20270;-73
2024/01/08 03:36:34;;;;;;;10.23;7.22;;;-6.80;1.00;;;;;;5111040;28;20227;-77
2024/01/08 03:39:01;;;;;;;8.63;7.38;;;-6.80;1.00;;;;;;5109358;28;20267;-78
2024/01/08 03:41:28;;;;;;;11.00;7.82;;;-6.80;1.00;;;;;;5107092;28;20326;-77
2024/01/08 03:43:55;;;;;;;9.98;8.10;;;-6.90;1.00;;;;;;5109298;28;20251;-76
2024/01/08 03:46:22;;;;;;;12.40;8.95;;;-6.90;1.00;;;;;;5112912;28;20251;-78
2024/01/08 03:48:50;;;;;;;11.90;8.43;;;-6.90;1.00;;;;;;5110134;28;20313;-78
2024/01/08 03:51:17;;;;;;;11.65;8.23;;;-6.90;1.00;;;;;;5098892;28;20262;-77
2024/01/08 03:53:44;;;;;;;11.07;8.50;;;-6.90;1.00;;;;;;5106431;28;20228;-76
2024/01/08 03:56:11;;;;;;;8.10;6.63;;;-7.00;1.00;;;;;;5114840;28;20255;-78
2024/01/08 03:58:38;;;;;;;11.43;6.90;;;-7.00;1.00;;;;;;5109244;28;20320;-77
2024/01/08 04:01:05;;;;;;;13.43;8.75;;;-6.90;1.00;;;;;;5112559;28;20238;-77
2024/01/08 04:03:32;;;;;;;10.18;7.53;;;-7.00;1.00;;;;;;5105687;27;20309;-77
2024/01/08 04:06:00;;;;;;;12.75;8.32;;;-7.00;1.00;;;;;;5106589;27;20322;-76
2024/01/08 04:08:27;;;;;;;11.30;8.45;;;-7.00;1.00;;;;;;5108414;28;20322;-78
2024/01/08 04:10:54;;;;;;;15.00;8.27;;;-7.00;1.00;;;;;;5113243;28;20235;-78
2024/01/08 04:13:21;;;;;;;10.98;7.30;;;-7.00;1.00;;;;;;5110469;28;20316;-77
2024/01/08 04:15:48;;;;;;;9.32;7.20;;;-7.00;1.00;;;;;;5106249;28;20407;-79
2024/01/08 04:18:15;;;;;;;11.10;8.07;;;-7.00;1.00;;;;;;5109330;28;20281;-77
2024/01/08 04:20:44;;;;;;;10.18;8.18;;;-6.90;1.00;;;;;;5107813;28;20257;-80
2024/01/08 04:23:12;;;;;;;12.40;8.70;;;-6.90;1.00;;;;;;5106271;27;20240;-77
2024/01/08 04:25:40;;;;;;;10.45;8.13;;;-7.00;1.00;;;;;;5112214;28;20278;-76
2024/01/08 04:28:08;;;;;;;9.25;7.28;;;-7.00;1.00;;;;;;5109450;28;20298;-77
2024/01/08 04:30:35;;;;;;;13.60;8.05;;;-7.00;1.00;;;;;;5106538;28;20997;-75
2024/01/08 04:33:02;;;;;;;15.63;8.35;;;-7.00;1.00;;;;;;5111491;28;20228;-75
2024/01/08 04:35:29;;;;;;;14.07;8.98;;;-7.00;1.00;;;;;;5108635;28;20333;-75
2024/01/08 04:37:56;;;;;;;9.75;8.10;;;-6.90;1.00;;;;;;5109209;28;20227;-75
2024/01/08 04:40:25;;;;;;;10.45;8.05;;;-6.90;1.00;;;;;;5108520;28;20262;-75
2024/01/08 04:42:52;;;;;;;10.68;7.40;;;-6.90;1.00;;;;;;5113543;28;20239;-73
2024/01/08 04:45:19;;;;;;;10.68;9.27;;;-6.90;1.00;;;;;;5107800;28;20304;-75
2024/01/08 04:47:46;;;;;;;10.23;7.85;;;-6.90;1.00;;;;;;5109304;28;20231;-75
2024/01/08 04:50:13;;;;;;;14.55;8.40;;;-6.80;1.00;;;;;;5109433;28;20235;-75
2024/01/08 04:52:40;;;;;;;13.43;9.10;;;-6.90;1.00;;;;;;5105709;28;20267;-74
2024/01/08 04:55:07;;;;;;;9.43;7.30;;;-6.90;1.00;;;;;;5108041;28;20259;-74
2024/01/08 04:57:40;;;;;;;11.65;9.40;;;-6.90;1.00;;;;;;5106277;28;20235;-74
2024/01/08 05:00:12;;;;;;;10.95;8.10;;;-6.90;1.00;;;;;;5107009;27;20231;-78
2024/01/08 05:02:39;;;;;;;11.15;8.50;;;-6.90;1.00;;;;;;5104695;28;20235;-74
2024/01/08 05:05:11;;;;;;;10.27;7.50;;;-6.90;1.00;;;;;;5101872;28;20318;-75
2024/01/08 05:07:38;;;;;;;10.55;8.25;;;-6.90;1.00;;;;;;5083777;27;20251;-73
2024/01/08 05:10:06;;;;;;;10.48;8.10;;;-6.90;1.00;;;;;;5098720;27;20243;-75
2024/01/08 05:12:35;;;;;;;8.90;8.00;;;-6.90;1.00;;;;;;5080313;28;20285;-74
2024/01/08 05:15:02;;;;;;;10.73;8.60;;;-6.90;1.00;;;;;;5111021;27;21021;-73
2024/01/08 05:17:29;;;;;;;11.20;8.15;;;-6.90;1.00;;;;;;5105554;27;20239;-74
2024/01/08 05:19:56;;;;;;;10.43;8.63;;;-6.90;1.00;;;;;;5105447;27;20255;-75
2024/01/08 05:22:22;;;;;;;10.98;8.75;;;-6.90;1.00;;;;;;5102296;27;20249;-75
2024/01/08 05:24:49;;;;;;;9.97;7.37;;;-6.80;1.00;;;;;;5108130;27;20231;-76
2024/01/08 05:27:16;;;;;;;12.25;8.05;;;-6.90;1.00;;;;;;5107964;27;20457;-72
2024/01/08 05:29:45;;;;;;;8.98;7.25;;;-6.70;1.00;;;;;;5104317;28;20852;-76
2024/01/08 05:32:15;;;;;;;14.13;10.10;;;-6.70;1.00;;;;;;5104839;27;20235;-76
2024/01/08 05:34:42;;;;;;;11.52;8.70;;;-6.70;1.00;;;;;;5103727;27;20285;-74
2024/01/08 05:37:09;;;;;;;10.85;8.13;;;-6.70;1.00;;;;;;5107087;27;20957;-75
2024/01/08 05:39:36;;;;;;;12.80;9.75;;;-6.80;1.00;;;;;;5105494;27;20811;-74
2024/01/08 05:42:04;;;;;;;9.13;7.50;;;-6.80;1.00;;;;;;5109307;28;21938;-76
2024/01/08 05:44:33;;;;;;;13.10;8.80;;;-6.80;1.00;;;;;;5109117;27;20302;-79
2024/01/08 05:47:01;;;;;;;12.02;7.95;;;-6.80;1.00;;;;;;5112294;27;20782;-77
2024/01/08 05:49:28;;;;;;;13.40;9.13;;;-6.80;1.00;;;;;;5112043;27;20235;-77
2024/01/08 05:51:55;;;;;;;14.98;10.25;;;-6.90;1.00;;;;;;5111595;28;20246;-78
2024/01/08 05:54:22;;;;;;;17.48;12.48;;;-6.90;1.00;;;;;;5099127;27;20239;-77
2024/01/08 05:56:49;;;;;;;11.60;9.15;;;-6.90;1.00;;;;;;5108349;27;20236;-76
2024/01/08 05:59:16;;;;;;;12.82;8.60;;;-6.80;1.00;;;;;;5105696;28;20310;-74
2024/01/08 06:01:43;;;;;;;10.88;9.77;;;-6.90;1.00;;;;;;5106565;27;20235;-75
2024/01/08 06:04:11;;;;;;;13.15;11.07;;;-6.90;1.00;;;;;;5110039;28;20242;-74
2024/01/08 06:06:38;;;;;;;12.00;9.82;;;-6.90;1.00;;;;;;5110035;27;20239;-74
2024/01/08 06:09:08;;;;;;;12.98;10.73;;;-6.80;1.00;;;;;;5111396;27;20239;-74
2024/01/08 06:11:35;;;;;;;14.48;10.45;;;-6.90;1.00;;;;;;5108139;27;20357;-74
2024/01/08 06:14:05;;;;;;;13.25;10.02;;;-6.80;1.00;;;;;;5106119;27;20295;-74
2024/01/08 06:16:35;;;;;;;14.43;8.60;;;-6.80;1.00;;;;;;5080268;28;20261;-74
2024/01/08 06:19:02;;;;;;;10.77;8.25;;;-6.80;1.00;;;;;;5109132;28;20625;-77
2024/01/08 06:21:30;;;;;;;12.05;9.60;;;-6.80;1.00;;;;;;5105526;27;20727;-75
2024/01/08 06:23:58;;;;;;;11.52;8.43;;;-6.80;1.00;;;;;;5105814;27;20589;-75
2024/01/08 06:26:28;;;;;;;14.27;9.57;;;-6.80;1.00;;;;;;5102948;27;20989;-78
2024/01/08 06:28:55;;;;;;;12.88;8.93;;;-6.70;1.00;;;;;;5102061;27;20969;-78
2024/01/08 06:31:22;;;;;;;13.23;9.40;;;-6.80;1.00;;;;;;5108010;27;21005;-74
2024/01/08 06:33:49;;;;;;;12.73;9.35;;;-6.80;1.00;;;;;;5110153;28;20344;-74
2024/01/08 06:36:16;;;;;;;12.18;9.40;;;-6.80;1.00;;;;;;5110605;27;20293;-74
2024/01/08 06:38:44;;;;;;;11.70;9.30;;;-6.80;1.00;;;;;;5055652;28;20264;-76
2024/01/08 06:41:12;;;;;;;14.77;9.13;;;-6.70;1.00;;;;;;5093689;27;20805;-75
2024/01/08 06:43:39;;;;;;;12.80;8.38;;;-6.80;1.00;;;;;;5107082;28;21273;-78
2024/01/08 06:46:07;;;;;;;17.85;9.73;;;-6.70;1.00;;;;;;5110243;27;21136;-79
2024/01/08 06:48:34;;;;;;;15.05;9.60;;;-6.80;1.00;;;;;;5109422;27;20428;-78
2024/01/08 06:51:04;;;;;;;16.85;9.48;;;-6.80;1.00;;;;;;5113359;27;20959;-78
2024/01/08 06:53:31;;;;;;;13.05;10.25;;;-6.70;1.00;;;;;;5111214;28;20322;-78
2024/01/08 06:56:00;;;;;;;13.32;9.68;;;-6.70;1.00;;;;;;5112668;27;20295;-78
2024/01/08 06:58:27;;;;;;;15.98;10.38;;;-6.70;1.00;;;;;;5111491;27;20227;-76
2024/01/08 07:00:54;;;;;;;12.10;10.35;;;-6.70;1.00;;;;;;5083173;28;20393;-76
2024/01/08 07:03:24;;;;;;;12.63;8.73;;;-6.80;1.00;;;;;;5105598;27;20687;-74
2024/01/08 07:05:53;;;;;;;13.25;11.35;;;-6.80;1.00;;;;;;5088067;27;20238;-76
2024/01/08 07:08:20;;;;;;;12.65;10.20;;;-6.80;1.00;;;;;;5078939;28;20243;-76
2024/01/08 07:10:49;;;;;;;12.77;9.30;;;-6.80;1.00;;;;;;5107412;27;20232;-73
2024/01/08 07:13:23;;;;;;;16.40;9.43;;;-6.80;1.00;;;;;;5109338;27;20322;-69
2024/01/08 07:15:51;;;;;;;13.80;9.82;;;-6.80;1.00;;;;;;5080985;27;20659;-73
2024/01/08 07:18:19;;;;;;;10.88;9.65;;;-6.80;1.00;;;;;;5102556;27;20243;-72
2024/01/08 07:20:46;;;;;;;12.63;10.52;;;-6.80;1.00;;;;;;5105677;27;20967;-71
2024/01/08 07:23:14;;;;;;;10.55;8.90;;;-6.70;1.00;;;;;;5103912;27;20445;-70
2024/01/08 07:25:42;;;;;;;17.25;9.98;;;-6.80;1.00;;;;;;5106844;27;20274;-76
2024/01/08 07:28:11;;;;;;;11.68;9.70;;;-6.80;1.00;;;;;;5108887;27;20235;-70
2024/01/08 07:30:41;;;;;;;12.43;9.90;;;-6.80;1.00;;;;;;5106120;27;20330;-81
2024/01/08 07:33:08;;;;;;;14.50;9.95;;;-6.80;1.00;;;;;;5108721;27;20266;-71
2024/01/08 07:35:35;;;;;;;15.55;9.93;;;-6.80;1.00;;;;;;5105918;27;20270;-70
2024/01/08 07:38:02;;;;;;;12.85;9.43;;;-6.90;1.00;;;;;;5106897;27;20243;-71
2024/01/08 07:40:29;;;;;;;11.35;9.25;;;-6.80;1.00;;;;;;5104219;27;20269;-69
2024/01/08 07:42:56;;;;;;;15.90;11.05;;;-6.80;1.00;;;;;;5110195;27;20258;-73
2024/01/08 07:45:24;;;;;;;15.25;10.52;;;-6.90;1.00;;;;;;5104593;27;20985;-70
2024/01/08 07:47:54;;;;;;;14.55;10.60;;;-6.80;1.00;;;;;;5106816;27;20904;-72
2024/01/08 07:50:21;;;;;;;15.50;9.68;;;-6.80;1.00;;;;;;5108365;27;20250;-75
2024/01/08 07:52:51;;;;;;;15.38;10.20;;;-6.70;1.00;;;;;;5103856;27;21202;-72
2024/01/08 07:55:19;;;;;;;15.10;9.45;;;-6.60;1.00;;;;;;5105645;27;21088;-69
2024/01/08 07:57:48;;;;;;;13.52;9.80;;;-6.50;1.00;;;;;;5106334;27;20241;-71
2024/01/08 08:00:21;;;;;;;14.35;9.75;;;-6.50;1.00;;;;;;5109332;28;20863;-74
2024/01/08 08:02:48;;;;;;;16.10;11.52;;;-6.50;1.00;;;;;;5107773;27;20235;-72
2024/01/08 08:05:19;;;;;;;11.88;9.80;;;-6.50;1.00;;;;;;5106817;27;20268;-74
2024/01/08 08:07:46;;;;;;;15.35;10.48;;;-6.50;1.00;;;;;;5103718;27;20238;-77
2024/01/08 08:10:13;;;;;;;14.68;9.98;;;-6.50;1.00;;;;;;5096873;28;20263;-72
2024/01/08 08:12:41;;;;;;;13.20;10.63;;;-6.50;1.00;;;;;;5108259;28;20330;-74
2024/01/08 08:15:10;;;;;;;12.70;9.75;;;-6.40;1.00;;;;;;5106813;27;20235;-75
2024/01/08 08:17:40;;;;;;;16.88;11.50;;;-6.30;1.00;;;;;;5102703;27;20283;-73
2024/01/08 08:20:09;;;;;;;16.27;10.93;;;-6.30;1.00;;;;;;5103692;27;20640;-74
2024/01/08 08:22:38;;;;;;;13.80;10.48;;;-6.20;1.00;;;;;;5106857;27;20299;-74
2024/01/08 08:25:06;;;;;;;12.02;8.57;;;-6.10;1.00;;;;;;5108381;27;20282;-71
2024/01/08 08:27:35;;;;;;;14.13;9.30;;;-5.60;1.00;;;;;;5110361;27;20289;-75
2024/01/08 08:30:02;;;;;;;11.93;10.57;;;-4.80;1.00;;;;;;5111168;28;21172;-72
2024/01/08 08:32:29;;;;;;;16.95;9.02;;;-4.00;1.00;;;;;;5107468;27;20308;-72
2024/01/08 08:34:56;;;;;;;13.80;9.95;;;-3.40;1.00;;;;;;5109851;27;20235;-74
2024/01/08 08:37:23;;;;;;;12.82;8.90;;;-2.90;1.00;;;;;;5108035;28;20328;-74
2024/01/08 08:39:52;;;;;;;15.02;11.23;;;-2.50;1.00;;;;;;5109768;27;20266;-75
2024/01/08 08:42:19;;;;;;;13.05;9.30;;;-2.50;1.00;;;;;;5110496;27;20235;-73
2024/01/08 08:44:46;;;;;;;13.48;8.88;;;-2.50;1.00;;;;;;5108416;28;20349;-73
2024/01/08 08:47:13;;;;;;;10.23;8.55;;;-2.80;1.00;;;;;;5110051;27;20231;-74
2024/01/08 08:49:43;;;;;;;10.07;8.80;;;-2.90;1.00;;;;;;5106090;27;20271;-73
2024/01/08 08:52:10;;;;;;;13.85;9.15;;;-3.40;1.00;;;;;;5104537;28;20228;-72
2024/01/08 08:54:37;;;;;;;13.30;9.18;;;-3.80;1.00;;;;;;5107744;27;20239;-72
2024/01/08 08:57:06;;;;;;;13.30;10.05;;;-4.00;1.00;;;;;;5105917;27;20348;-75
2024/01/08 08:59:37;;;;;;;14.38;10.68;;;-4.20;1.00;;;;;;5107172;27;20680;-73
2024/01/08 09:02:04;;;;;;;13.25;9.82;;;-4.10;1.00;;;;;;5096676;27;20710;-73
2024/01/08 09:04:31;;;;;;;13.52;9.00;;;-4.00;1.00;;;;;;5104507;27;20730;-75
2024/01/08 09:07:00;;;;;;;11.65;9.07;;;-4.00;1.00;;;;;;5111313;27;20293;-74
2024/01/08 09:09:27;;;;;;;17.65;10.80;;;-4.10;1.00;;;;;;5108656;27;20289;-76
2024/01/08 09:11:54;;;;;;;11.40;8.75;;;-4.20;1.00;;;;;;5109398;27;20239;-72
2024/01/08 09:14:24;;;;;;;12.02;8.60;;;-4.30;1.00;;;;;;5110753;27;20239;-74
2024/01/08 09:16:51;;;;;;;8.80;7.88;;;-4.20;1.00;;;;;;5110289;27;20956;-73
2024/01/08 09:19:19;;;;;;;15.65;8.60;;;-4.30;1.00;;;;;;5111137;27;21078;-76
2024/01/08 09:21:47;;;;;;;11.07;9.25;;;-4.00;1.00;;;;;;5111071;28;20242;-74
2024/01/08 09:24:16;;;;;;;10.48;8.65;;;-3.50;1.00;;;;;;5091395;27;20251;-74
2024/01/08 09:26:42;;;;;;;12.13;8.30;;;-3.20;1.00;;;;;;5110307;27;20384;-76
2024/01/08 09:29:09;;;;;;;11.43;8.63;;;-3.10;1.00;;;;;;5104343;28;20263;-72
2024/01/08 09:31:38;;;;;;;9.57;8.48;;;-3.30;1.00;;;;;;5109669;28;20231;-76
2024/01/08 09:34:08;;;;;;;12.30;8.40;;;-3.20;1.00;;;;;;5110526;27;20351;-77
2024/01/08 09:36:35;;;;;;;15.15;7.75;;;-3.00;1.00;;;;;;5115128;27;20239;-79
2024/01/08 09:39:03;;;;;;;11.30;9.55;;;-2.70;1.00;;;;;;5111874;27;20247;-74
2024/01/08 09:41:30;;;;;;;10.50;7.93;;;-2.70;1.00;;;;;;5112424;27;20235;-81
2024/01/08 09:44:03;;;;;;;13.80;9.15;;;-2.80;1.00;;;;;;5116325;27;20242;-80
2024/01/08 09:46:34;;;;;;;24.15;17.13;;;-2.80;1.00;;;;;;5115347;28;20242;-77
2024/01/08 09:49:05;;;;;;;11.20;7.47;;;-2.70;1.00;;;;;;5112312;28;20309;-77
2024/01/08 09:51:32;;;;;;;8.70;7.78;;;-2.20;1.00;;;;;;5114679;27;20235;-78
2024/01/08 09:54:00;;;;;;;10.10;8.45;;;-1.90;1.00;;;;;;5113294;27;20224;-81
2024/01/08 09:56:28;;;;;;;10.93;8.00;;;-2.00;1.00;;;;;;5109833;28;20227;-75
2024/01/08 09:58:56;;;;;;;12.50;8.20;;;-2.10;1.00;;;;;;5111981;27;21295;-78
2024/01/08 10:01:23;;;;;;;11.10;7.63;;;-2.20;1.00;;;;;;5107206;27;20303;-78
2024/01/08 10:03:50;;;;;;;9.77;8.05;;;-2.10;1.00;;;;;;5112476;27;20281;-78
2024/01/08 10:06:19;;;;;;;10.57;7.43;;;-2.00;1.00;;;;;;5112721;27;20266;-77
2024/01/08 10:08:47;;;;;;;9.85;7.13;;;-1.50;1.00;;;;;;5109574;27;21073;-79
2024/01/08 10:11:15;;;;;;;11.43;8.48;;;-1.20;1.00;;;;;;5112641;27;20242;-74
2024/01/08 10:13:43;;;;;;;8.05;6.63;;;-1.00;1.00;;;;;;5102856;27;20323;-79
2024/01/08 10:16:12;;;;;;;10.48;6.90;;;-0.70;1.00;;;;;;5117457;27;20259;-78
2024/01/08 10:18:39;;;;;;;11.00;7.18;;;-0.80;1.00;;;;;;5113465;27;21054;-75
2024/01/08 10:21:10;;;;;;;8.57;6.93;;;-1.00;1.00;;;;;;5112783;27;20235;-71
2024/01/08 10:23:39;;;;;;;9.20;7.35;;;-1.30;1.00;;;;;;5113020;27;21068;-74
2024/01/08 10:26:06;;;;;;;8.73;6.25;;;-1.10;1.00;;;;;;5107222;28;20259;-78
2024/01/08 10:28:37;;;;;;;7.40;6.55;;;-0.60;1.00;;;;;;5105560;27;20236;-73
2024/01/08 10:31:06;;;;;;;10.73;7.75;;;-0.40;1.00;;;;;;5104036;27;20240;-74
2024/01/08 10:33:33;;;;;;;13.30;8.02;;;0.00;1.00;;;;;;5111084;27;20726;-76
2024/01/08 10:36:03;;;;;;;9.32;6.82;;;0.30;1.00;;;;;;5109383;27;20304;-73
2024/01/08 10:38:32;;;;;;;9.82;7.30;;;0.20;1.00;;;;;;5111213;27;20275;-74
2024/01/08 10:41:01;;;;;;;8.82;6.05;;;-0.10;1.00;;;;;;5107127;27;20239;-72
2024/01/08 10:43:29;;;;;;;7.60;5.70;;;0.20;1.00;;;;;;5110135;27;20293;-74
2024/01/08 10:45:59;;;;;;;9.90;6.78;;;0.90;1.00;;;;;;5113223;27;20745;-70
2024/01/08 10:48:36;;;;;;;9.43;6.85;;;1.70;1.00;;;;;;5105852;27;21785;-71
2024/01/08 10:51:07;;;;;;;11.75;7.72;;;1.80;1.00;;;;;;5114838;27;20251;-73
2024/01/08 10:53:44;;;;;;;8.65;6.93;;;1.40;1.00;;;;;;5111460;28;20235;-74
2024/01/08 10:56:14;;;;;;;9.32;7.15;;;1.90;1.00;;;;;;5111821;28;20235;-72
2024/01/08 10:58:52;;;;;;;7.00;6.32;;;3.00;1.00;;;;;;5103025;28;20239;-74
2024/01/08 11:01:21;;;;;;;11.57;8.85;;;3.50;1.00;;;;;;5114042;27;20239;-74
2024/01/08 11:03:50;;;;;;;9.25;6.20;;;2.70;1.00;;;;;;5098467;27;20321;-71
2024/01/08 11:06:17;;;;;;;7.30;5.93;;;2.20;1.00;;;;;;5097343;27;20723;-73
2024/01/08 11:08:45;;;;;;;7.20;5.53;;;1.90;1.00;;;;;;5109611;27;20262;-71
2024/01/08 11:11:17;;;;;;;7.32;6.57;;;2.20;1.00;;;;;;5110856;27;21068;-70
2024/01/08 11:13:45;;;;;;;8.43;6.63;;;2.30;1.00;;;;;;5095695;28;20231;-68
2024/01/08 11:16:20;;;;;;;9.70;6.32;;;3.30;1.00;;;;;;5098862;27;21489;-69
2024/01/08 11:18:48;;;;;;;7.40;6.07;;;4.10;1.00;;;;;;5105496;28;20387;-71
2024/01/08 11:21:24;;;;;;;7.28;6.50;;;4.00;1.00;;;;;;5107688;27;20320;-73
2024/01/08 11:23:53;;;;;;;10.38;6.28;;;4.30;1.00;;;;;;5111724;28;20259;-73
2024/01/08 11:26:25;;;;;;;7.25;5.55;;;4.70;1.00;;;;;;5110358;28;20258;-71
2024/01/08 11:29:03;;;;;;;8.38;6.85;;;4.50;1.00;;;;;;5119176;27;20236;-72
2024/01/08 11:32:11;;;;;;;8.60;7.15;;;4.40;1.00;;;;;;5108348;27;20285;-72
2024/01/08 11:35:03;;;;;;;12.93;7.57;;;4.40;1.00;;;;;;5077421;28;20243;-72
2024/01/08 11:37:38;;;;;;;20.15;12.63;;;4.00;1.00;;;;;;5107306;27;20689;-70
2024/01/08 11:40:13;;;;;;;9.32;7.45;;;4.40;1.00;;;;;;5109471;27;20239;-74
2024/01/08 11:42:42;;;;;;;8.80;7.50;;;5.00;1.00;;;;;;5098709;27;20261;-71
2024/01/08 11:45:10;;;;;;;10.77;6.75;;;4.90;1.00;;;;;;5108831;28;20301;-71
2024/01/08 11:47:38;;;;;;;11.82;7.68;;;5.10;1.00;;;;;;5110813;27;20231;-71
2024/01/08 11:50:06;;;;;;;12.45;7.60;;;5.30;1.00;;;;;;5111509;27;20250;-75
2024/01/08 11:52:35;;;;;;;17.30;9.32;;;5.20;1.00;;;;;;5112448;28;20246;-75
2024/01/08 11:55:02;;;;;;;8.80;7.03;;;5.40;1.00;;;;;;5111816;27;20240;-75
2024/01/08 11:57:29;;;;;;;10.85;5.82;;;5.50;1.00;;;;;;5111396;27;20281;-77
2024/01/08 11:59:58;;;;;;;6.90;6.20;;;4.90;1.00;;;;;;5112162;27;21089;-76
2024/01/08 12:02:27;;;;;;;11.70;7.40;;;4.70;1.00;;;;;;5109956;27;20249;-76
2024/01/08 12:04:55;;;;;;;9.45;6.70;;;5.30;1.00;;;;;;5111650;27;20338;-74
2024/01/08 12:07:23;;;;;;;12.05;8.52;;;6.00;1.00;;;;;;5112331;27;20301;-76
2024/01/08 12:10:01;;;;;;;7.60;5.90;;;6.20;1.00;;;;;;5111310;28;20260;-77
2024/01/08 12:12:29;;;;;;;7.05;5.82;;;7.10;1.00;;;;;;5105189;28;20240;-75
2024/01/08 12:14:56;;;;;;;10.13;6.15;;;7.50;1.00;;;;;;5106298;27;20741;-76
2024/01/08 12:17:26;;;;;;;8.57;6.60;;;7.80;1.00;;;;;;5108894;27;20743;-75
2024/01/08 12:19:57;;;;;;;7.05;6.30;;;7.60;1.00;;;;;;5106410;27;21028;-75
2024/01/08 12:22:27;;;;;;;7.78;6.25;;;7.10;1.00;;;;;;5108866;27;20241;-76
2024/01/08 12:24:57;;;;;;;18.02;16.67;;;6.60;1.00;;;;;;5112013;27;20805;-76
2024/01/08 12:27:30;;;;;;;9.15;6.18;;;7.00;1.00;;;;;;5108284;27;20232;-76
2024/01/08 12:29:57;;;;;;;8.30;6.72;;;7.20;1.00;;;;;;5105833;27;21752;-76
2024/01/08 12:32:28;;;;;;;12.93;6.80;;;7.30;1.00;;;;;;5110944;27;21112;-77
2024/01/08 12:34:57;;;;;;;9.57;6.88;;;7.40;1.00;;;;;;5109383;27;20244;-76
2024/01/08 12:37:32;;;;;;;9.40;6.05;;;7.50;1.00;;;;;;5107799;27;20239;-75
2024/01/08 12:40:04;;;;;;;6.10;5.25;;;7.30;1.00;;;;;;5112000;27;20247;-73
2024/01/08 12:42:35;;;;;;;7.28;5.03;;;7.10;1.00;;;;;;5104371;28;20255;-70
2024/01/08 12:45:09;;;;;;;8.80;5.78;;;7.60;1.00;;;;;;5105567;27;20245;-75
2024/01/08 12:47:38;;;;;;;8.23;6.50;;;7.70;1.00;;;;;;5111712;27;20252;-70
2024/01/08 12:50:08;;;;;;;8.38;6.30;;;8.20;1.00;;;;;;5111383;27;20461;-73
2024/01/08 12:52:35;;;;;;;8.80;5.80;;;8.60;1.00;;;;;;5109342;27;20238;-75
2024/01/08 12:55:03;;;;;;;7.37;6.10;;;9.40;1.00;;;;;;5109739;27;20912;-71
2024/01/08 12:57:30;;;;;;;7.97;5.43;;;10.30;1.00;;;;;;5103321;27;20459;-72